sensor_id;sensor_type;location;lat;lon;timestamp;pressure;altitude;pressure_sealevel;temperature;humidity
77583;BME280;66726;52.388;9.986;2023-04-28T00:00:06;101111.59;;;7.40;52.87
77583;BME280;66726;52.388;9.986;2023-04-28T00:02:38;101102.91;;;7.38;53.12
77583;BME280;66726;52.388;9.986;2023-04-28T00:05:11;101102.63;;;7.41;53.31
77583;BME280;66726;52.388;9.986;2023-04-28T00:07:44;101104.31;;;7.42;53.86
77583;BME280;66726;52.388;9.986;2023-04-28T00:10:17;101089.03;;;7.44;54.38
77583;BME280;66726;52.388;9.986;2023-04-28T00:12:49;101086.25;;;7.46;53.78
77583;BME280;66726;52.388;9.986;2023-04-28T00:15:21;101084.69;;;7.43;54.47
77583;BME280;66726;52.388;9.986;2023-04-28T00:17:53;101077.41;;;7.45;54.21
77583;BME280;66726;52.388;9.986;2023-04-28T00:20:25;101075.72;;;7.44;53.96
77583;BME280;66726;52.388;9.986;2023-04-28T00:22:57;101067.88;;;7.43;54.87
77583;BME280;66726;52.388;9.986;2023-04-28T00:25:30;101071.38;;;7.43;54.66
77583;BME280;66726;52.388;9.986;2023-04-28T00:28:02;101075.72;;;7.44;55.23
77583;BME280;66726;52.388;9.986;2023-04-28T00:30:34;101066.50;;;7.48;55.12
77583;BME280;66726;52.388;9.986;2023-04-28T00:33:06;101056.09;;;7.45;54.64
77583;BME280;66726;52.388;9.986;2023-04-28T00:35:38;101065.34;;;7.41;56.11
77583;BME280;66726;52.388;9.986;2023-04-28T00:38:10;101062.94;;;7.38;56.21
77583;BME280;66726;52.388;9.986;2023-04-28T00:40:43;101062.25;;;7.36;56.59
77583;BME280;66726;52.388;9.986;2023-04-28T00:43:15;101055.22;;;7.35;56.61
77583;BME280;66726;52.388;9.986;2023-04-28T00:45:47;101049.44;;;7.30;56.45
77583;BME280;66726;52.388;9.986;2023-04-28T00:48:20;101051.25;;;7.30;55.95
77583;BME280;66726;52.388;9.986;2023-04-28T00:50:53;101056.72;;;7.28;55.17
77583;BME280;66726;52.388;9.986;2023-04-28T00:53:25;101047.28;;;7.24;54.77
77583;BME280;66726;52.388;9.986;2023-04-28T00:55:59;101040.00;;;7.26;55.95
77583;BME280;66726;52.388;9.986;2023-04-28T00:58:33;101042.66;;;7.26;54.91
77583;BME280;66726;52.388;9.986;2023-04-28T01:01:07;101034.44;;;7.29;54.77
77583;BME280;66726;52.388;9.986;2023-04-28T01:03:41;101036.38;;;7.27;55.39
77583;BME280;66726;52.388;9.986;2023-04-28T01:06:15;101038.34;;;7.25;56.64
77583;BME280;66726;52.388;9.986;2023-04-28T01:08:51;101043.53;;;7.27;56.81
77583;BME280;66726;52.388;9.986;2023-04-28T01:11:24;101035.69;;;7.25;56.85
77583;BME280;66726;52.388;9.986;2023-04-28T01:13:56;101028.28;;;7.29;57.04
77583;BME280;66726;52.388;9.986;2023-04-28T01:16:29;101031.91;;;7.28;56.75
77583;BME280;66726;52.388;9.986;2023-04-28T01:19:03;101028.00;;;7.32;56.87
77583;BME280;66726;52.388;9.986;2023-04-28T01:21:38;101020.28;;;7.29;56.75
77583;BME280;66726;52.388;9.986;2023-04-28T01:24:11;101025.72;;;7.27;56.26
77583;BME280;66726;52.388;9.986;2023-04-28T01:26:43;101010.72;;;7.26;57.06
77583;BME280;66726;52.388;9.986;2023-04-28T01:29:15;101001.75;;;7.27;56.45
77583;BME280;66726;52.388;9.986;2023-04-28T01:31:47;101010.72;;;7.26;56.69
77583;BME280;66726;52.388;9.986;2023-04-28T01:34:19;101012.78;;;7.23;56.15
77583;BME280;66726;52.388;9.986;2023-04-28T01:36:51;101009.16;;;7.24;55.96
77583;BME280;66726;52.388;9.986;2023-04-28T01:39:33;101016.16;;;7.15;55.52
77583;BME280;66726;52.388;9.986;2023-04-28T01:42:05;101007.75;;;7.20;55.69
77583;BME280;66726;52.388;9.986;2023-04-28T01:44:37;101011.25;;;7.20;55.75
77583;BME280;66726;52.388;9.986;2023-04-28T01:47:09;101003.53;;;7.17;54.71
77583;BME280;66726;52.388;9.986;2023-04-28T01:49:41;101001.59;;;7.19;55.05
77583;BME280;66726;52.388;9.986;2023-04-28T01:52:13;100993.72;;;7.18;56.07
77583;BME280;66726;52.388;9.986;2023-04-28T01:54:46;100988.53;;;7.16;56.07
77583;BME280;66726;52.388;9.986;2023-04-28T01:57:18;100986.59;;;7.18;55.42
77583;BME280;66726;52.388;9.986;2023-04-28T01:59:51;100976.78;;;7.19;54.88
77583;BME280;66726;52.388;9.986;2023-04-28T02:02:23;100983.06;;;7.18;54.54
77583;BME280;66726;52.388;9.986;2023-04-28T02:04:55;100973.28;;;7.18;54.61
77583;BME280;66726;52.388;9.986;2023-04-28T02:07:27;100965.28;;;7.18;54.97
77583;BME280;66726;52.388;9.986;2023-04-28T02:10:00;100965.66;;;7.13;53.97
77583;BME280;66726;52.388;9.986;2023-04-28T02:12:32;100963.59;;;7.17;54.68
77583;BME280;66726;52.388;9.986;2023-04-28T02:15:05;100970.69;;;7.07;53.93
77583;BME280;66726;52.388;9.986;2023-04-28T02:17:37;100963.00;;;7.13;54.75
77583;BME280;66726;52.388;9.986;2023-04-28T02:20:11;100969.31;;;7.12;54.61
77583;BME280;66726;52.388;9.986;2023-04-28T02:22:44;100966.78;;;7.11;54.77
77583;BME280;66726;52.388;9.986;2023-04-28T02:25:18;100965.09;;;7.10;54.66
77583;BME280;66726;52.388;9.986;2023-04-28T02:27:49;100961.72;;;7.08;54.48
77583;BME280;66726;52.388;9.986;2023-04-28T02:30:21;100948.28;;;7.09;54.67
77583;BME280;66726;52.388;9.986;2023-04-28T02:32:53;100950.81;;;7.11;54.74
77583;BME280;66726;52.388;9.986;2023-04-28T02:35:26;100959.75;;;7.10;54.24
77583;BME280;66726;52.388;9.986;2023-04-28T02:37:58;100952.75;;;7.09;54.14
77583;BME280;66726;52.388;9.986;2023-04-28T02:40:31;100937.31;;;7.03;54.76
77583;BME280;66726;52.388;9.986;2023-04-28T02:43:02;100937.03;;;7.06;54.05
77583;BME280;66726;52.388;9.986;2023-04-28T02:45:34;100936.19;;;7.05;54.33
77583;BME280;66726;52.388;9.986;2023-04-28T02:48:06;100924.72;;;7.05;54.11
77583;BME280;66726;52.388;9.986;2023-04-28T02:50:38;100935.38;;;7.05;54.25
77583;BME280;66726;52.388;9.986;2023-04-28T02:53:08;100930.06;;;7.05;53.97
77583;BME280;66726;52.388;9.986;2023-04-28T02:55:41;100922.06;;;7.05;54.97
77583;BME280;66726;52.388;9.986;2023-04-28T02:58:13;100918.41;;;7.06;54.79
77583;BME280;66726;52.388;9.986;2023-04-28T03:00:47;100915.06;;;7.04;54.29
77583;BME280;66726;52.388;9.986;2023-04-28T03:03:19;100917.72;;;7.04;54.23
77583;BME280;66726;52.388;9.986;2023-04-28T03:05:51;100907.75;;;7.06;54.85
77583;BME280;66726;52.388;9.986;2023-04-28T03:08:23;100912.50;;;7.02;53.94
77583;BME280;66726;52.388;9.986;2023-04-28T03:10:56;100904.41;;;7.04;54.85
77583;BME280;66726;52.388;9.986;2023-04-28T03:13:28;100898.09;;;7.05;55.05
77583;BME280;66726;52.388;9.986;2023-04-28T03:16:00;100892.91;;;7.03;55.83
77583;BME280;66726;52.388;9.986;2023-04-28T03:18:32;100892.78;;;7.05;55.62
77583;BME280;66726;52.388;9.986;2023-04-28T03:21:04;100893.28;;;6.99;55.73
77583;BME280;66726;52.388;9.986;2023-04-28T03:23:36;100890.06;;;6.95;55.72
77583;BME280;66726;52.388;9.986;2023-04-28T03:26:09;100893.28;;;6.99;56.54
77583;BME280;66726;52.388;9.986;2023-04-28T03:28:41;100885.31;;;6.99;56.81
77583;BME280;66726;52.388;9.986;2023-04-28T03:31:15;100880.72;;;7.01;56.88
77583;BME280;66726;52.388;9.986;2023-04-28T03:33:47;100882.41;;;7.02;56.74
77583;BME280;66726;52.388;9.986;2023-04-28T03:36:18;100881.56;;;7.01;56.47
77583;BME280;66726;52.388;9.986;2023-04-28T03:38:50;100875.50;;;6.99;56.31
77583;BME280;66726;52.388;9.986;2023-04-28T03:41:23;100864.75;;;7.01;56.61
77583;BME280;66726;52.388;9.986;2023-04-28T03:43:55;100873.56;;;7.01;57.27
77583;BME280;66726;52.388;9.986;2023-04-28T03:46:27;100868.66;;;6.97;55.81
77583;BME280;66726;52.388;9.986;2023-04-28T03:48:59;100858.97;;;6.96;56.46
77583;BME280;66726;52.388;9.986;2023-04-28T03:51:31;100865.97;;;6.97;55.88
77583;BME280;66726;52.388;9.986;2023-04-28T03:54:04;100856.31;;;6.96;56.02
77583;BME280;66726;52.388;9.986;2023-04-28T03:56:37;100859.13;;;6.94;55.89
77583;BME280;66726;52.388;9.986;2023-04-28T03:59:08;100854.06;;;6.91;55.90
77583;BME280;66726;52.388;9.986;2023-04-28T04:01:41;100846.19;;;6.90;55.77
77583;BME280;66726;52.388;9.986;2023-04-28T04:04:13;100846.19;;;6.90;55.92
77583;BME280;66726;52.388;9.986;2023-04-28T04:06:45;100841.16;;;6.87;55.99
77583;BME280;66726;52.388;9.986;2023-04-28T04:09:18;100840.19;;;6.88;56.13
77583;BME280;66726;52.388;9.986;2023-04-28T04:11:51;100840.19;;;6.88;56.02
77583;BME280;66726;52.388;9.986;2023-04-28T04:14:23;100841.41;;;6.84;55.38
77583;BME280;66726;52.388;9.986;2023-04-28T04:16:55;100834.41;;;6.83;55.93
77583;BME280;66726;52.388;9.986;2023-04-28T04:19:26;100832.72;;;6.82;55.71
77583;BME280;66726;52.388;9.986;2023-04-28T04:21:58;100841.41;;;6.84;55.81
77583;BME280;66726;52.388;9.986;2023-04-28T04:24:30;100832.72;;;6.82;55.46
77583;BME280;66726;52.388;9.986;2023-04-28T04:27:03;100833.72;;;6.81;55.54
77583;BME280;66726;52.388;9.986;2023-04-28T04:29:35;100830.31;;;6.79;55.68
77583;BME280;66726;52.388;9.986;2023-04-28T04:32:08;100824.31;;;6.77;55.54
77583;BME280;66726;52.388;9.986;2023-04-28T04:34:40;100822.50;;;6.77;56.27
77583;BME280;66726;52.388;9.986;2023-04-28T04:37:12;100828.78;;;6.76;56.17
77583;BME280;66726;52.388;9.986;2023-04-28T04:39:43;100823.34;;;6.78;56.13
77583;BME280;66726;52.388;9.986;2023-04-28T04:42:17;100828.66;;;6.78;55.90
77583;BME280;66726;52.388;9.986;2023-04-28T04:44:55;100828.38;;;6.81;56.02
77583;BME280;66726;52.388;9.986;2023-04-28T04:47:27;100824.88;;;6.80;56.08
77583;BME280;66726;52.388;9.986;2023-04-28T04:49:58;100824.72;;;6.82;55.86
77583;BME280;66726;52.388;9.986;2023-04-28T04:52:30;100815.66;;;6.84;55.98
77583;BME280;66726;52.388;9.986;2023-04-28T04:55:02;100818.16;;;6.86;56.47
77583;BME280;66726;52.388;9.986;2023-04-28T04:57:36;100819.59;;;6.90;56.42
77583;BME280;66726;52.388;9.986;2023-04-28T05:00:09;100826.59;;;6.91;56.00
77583;BME280;66726;52.388;9.986;2023-04-28T05:02:41;100817.50;;;6.93;55.86
77583;BME280;66726;52.388;9.986;2023-04-28T05:05:14;100819.31;;;6.93;55.71
77583;BME280;66726;52.388;9.986;2023-04-28T05:07:51;100811.78;;;6.98;56.66
77583;BME280;66726;52.388;9.986;2023-04-28T05:10:23;100814.16;;;7.01;56.11
77583;BME280;66726;52.388;9.986;2023-04-28T05:12:56;100813.19;;;7.02;56.61
77583;BME280;66726;52.388;9.986;2023-04-28T05:15:28;100813.03;;;7.03;56.18
77583;BME280;66726;52.388;9.986;2023-04-28T05:18:01;100805.75;;;7.05;55.84
77583;BME280;66726;52.388;9.986;2023-04-28T05:20:39;100807.44;;;7.06;56.67
77583;BME280;66726;52.388;9.986;2023-04-28T05:23:11;100810.69;;;7.10;56.72
77583;BME280;66726;52.388;9.986;2023-04-28T05:25:42;100810.69;;;7.10;56.59
77583;BME280;66726;52.388;9.986;2023-04-28T05:28:15;100810.41;;;7.13;57.11
77583;BME280;66726;52.388;9.986;2023-04-28T05:30:50;100806.78;;;7.14;57.17
77583;BME280;66726;52.388;9.986;2023-04-28T05:33:22;100796.97;;;7.14;56.76
77583;BME280;66726;52.388;9.986;2023-04-28T05:35:54;100795.84;;;7.17;57.07
77583;BME280;66726;52.388;9.986;2023-04-28T05:38:26;100795.72;;;7.19;56.45
77583;BME280;66726;52.388;9.986;2023-04-28T05:40:58;100793.75;;;7.21;56.45
77583;BME280;66726;52.388;9.986;2023-04-28T05:43:31;100791.66;;;7.24;57.60
77583;BME280;66726;52.388;9.986;2023-04-28T05:46:03;100793.34;;;7.25;56.88
77583;BME280;66726;52.388;9.986;2023-04-28T05:48:44;100791.38;;;7.27;56.61
77583;BME280;66726;52.388;9.986;2023-04-28T05:51:16;100788.59;;;7.29;56.07
77583;BME280;66726;52.388;9.986;2023-04-28T05:53:48;100789.44;;;7.29;56.50
77583;BME280;66726;52.388;9.986;2023-04-28T05:56:20;100794.47;;;7.32;57.75
77583;BME280;66726;52.388;9.986;2023-04-28T05:58:53;100790.56;;;7.36;57.73
77583;BME280;66726;52.388;9.986;2023-04-28T06:01:26;100788.59;;;7.38;58.08
77583;BME280;66726;52.388;9.986;2023-04-28T06:03:58;100783.84;;;7.42;57.14
77583;BME280;66726;52.388;9.986;2023-04-28T06:06:30;100772.91;;;7.45;57.01
77583;BME280;66726;52.388;9.986;2023-04-28T06:09:03;100768.13;;;7.48;56.77
77583;BME280;66726;52.388;9.986;2023-04-28T06:11:35;100764.34;;;7.51;57.15
77583;BME280;66726;52.388;9.986;2023-04-28T06:14:08;100770.22;;;7.54;57.14
77583;BME280;66726;52.388;9.986;2023-04-28T06:16:40;100772.63;;;7.57;57.90
77583;BME280;66726;52.388;9.986;2023-04-28T06:19:10;100759.72;;;7.62;57.01
77583;BME280;66726;52.388;9.986;2023-04-28T06:21:44;100761.13;;;7.67;57.14
77583;BME280;66726;52.388;9.986;2023-04-28T06:24:16;100764.19;;;7.72;57.71
77583;BME280;66726;52.388;9.986;2023-04-28T06:26:48;100763.63;;;7.78;58.22
77583;BME280;66726;52.388;9.986;2023-04-28T06:29:21;100762.06;;;7.85;58.00
77583;BME280;66726;52.388;9.986;2023-04-28T06:31:53;100761.53;;;7.91;56.92
77583;BME280;66726;52.388;9.986;2023-04-28T06:34:27;100761.06;;;7.95;57.63
77583;BME280;66726;52.388;9.986;2023-04-28T06:37:01;100767.53;;;8.02;57.14
77583;BME280;66726;52.388;9.986;2023-04-28T06:39:33;100762.75;;;8.06;57.22
77583;BME280;66726;52.388;9.986;2023-04-28T06:42:05;100755.84;;;8.13;55.79
77583;BME280;66726;52.388;9.986;2023-04-28T06:44:38;100760.59;;;8.19;56.52
77583;BME280;66726;52.388;9.986;2023-04-28T06:47:10;100758.78;;;8.20;56.94
77583;BME280;66726;52.388;9.986;2023-04-28T06:49:42;100764.66;;;8.23;57.22
77583;BME280;66726;52.388;9.986;2023-04-28T06:52:15;100758.78;;;8.29;56.73
77583;BME280;66726;52.388;9.986;2023-04-28T06:54:47;100762.84;;;8.33;56.24
77583;BME280;66726;52.388;9.986;2023-04-28T06:57:19;100757.34;;;8.44;56.18
77583;BME280;66726;52.388;9.986;2023-04-28T06:59:52;100754.78;;;8.52;56.17
77583;BME280;66726;52.388;9.986;2023-04-28T07:02:24;100757.84;;;8.57;56.47
77583;BME280;66726;52.388;9.986;2023-04-28T07:04:56;100757.53;;;8.60;56.80
77583;BME280;66726;52.388;9.986;2023-04-28T07:07:28;100742.94;;;8.64;57.79
77583;BME280;66726;52.388;9.986;2023-04-28T07:10:00;100742.31;;;8.71;56.89
77583;BME280;66726;52.388;9.986;2023-04-28T07:12:32;100746.94;;;8.78;55.98
77583;BME280;66726;52.388;9.986;2023-04-28T07:15:06;100740.00;;;8.85;56.43
77583;BME280;66726;52.388;9.986;2023-04-28T07:17:40;100734.06;;;8.91;55.96
77583;BME280;66726;52.388;9.986;2023-04-28T07:20:13;100747.50;;;8.99;55.04
77583;BME280;66726;52.388;9.986;2023-04-28T07:22:45;100741.88;;;9.02;56.00
77583;BME280;66726;52.388;9.986;2023-04-28T07:25:17;100733.41;;;9.07;55.85
77583;BME280;66726;52.388;9.986;2023-04-28T07:27:49;100732.09;;;9.11;55.22
77583;BME280;66726;52.388;9.986;2023-04-28T07:30:22;100727.47;;;9.13;55.43
77583;BME280;66726;52.388;9.986;2023-04-28T07:32:58;100722.34;;;9.20;55.48
77583;BME280;66726;52.388;9.986;2023-04-28T07:35:30;100723.88;;;9.22;55.83
77583;BME280;66726;52.388;9.986;2023-04-28T07:38:03;100731.59;;;9.25;56.20
77583;BME280;66726;52.388;9.986;2023-04-28T07:40:35;100735.50;;;9.31;56.84
77583;BME280;66726;52.388;9.986;2023-04-28T07:43:07;100733.19;;;9.36;56.21
77583;BME280;66726;52.388;9.986;2023-04-28T07:45:41;100735.41;;;9.40;55.96
77583;BME280;66726;52.388;9.986;2023-04-28T07:48:15;100733.28;;;9.44;55.56
77583;BME280;66726;52.388;9.986;2023-04-28T07:50:47;100728.47;;;9.47;54.59
77583;BME280;66726;52.388;9.986;2023-04-28T07:53:19;100735.88;;;9.53;54.91
77583;BME280;66726;52.388;9.986;2023-04-28T07:55:51;100726.88;;;9.54;54.19
77583;BME280;66726;52.388;9.986;2023-04-28T07:58:22;100726.69;;;9.56;54.59
77583;BME280;66726;52.388;9.986;2023-04-28T08:00:56;100720.06;;;9.60;54.61
77583;BME280;66726;52.388;9.986;2023-04-28T08:03:28;100723.25;;;9.63;56.21
77583;BME280;66726;52.388;9.986;2023-04-28T08:06:01;100714.28;;;9.73;54.81
77583;BME280;66726;52.388;9.986;2023-04-28T08:08:34;100713.06;;;9.85;55.61
77583;BME280;66726;52.388;9.986;2023-04-28T08:11:06;100706.16;;;10.00;53.84
77583;BME280;66726;52.388;9.986;2023-04-28T08:13:38;100713.06;;;10.10;54.67
77583;BME280;66726;52.388;9.986;2023-04-28T08:16:11;100714.00;;;10.19;54.71
77583;BME280;66726;52.388;9.986;2023-04-28T08:18:43;100711.53;;;10.26;53.70
77583;BME280;66726;52.388;9.986;2023-04-28T08:21:17;100717.59;;;10.36;53.07
77583;BME280;66726;52.388;9.986;2023-04-28T08:23:49;100706.56;;;10.39;53.89
77583;BME280;66726;52.388;9.986;2023-04-28T08:26:21;100712.28;;;10.44;54.69
77583;BME280;66726;52.388;9.986;2023-04-28T08:28:53;100711.78;;;10.48;53.39
77583;BME280;66726;52.388;9.986;2023-04-28T08:31:27;100714.00;;;10.53;51.50
77583;BME280;66726;52.388;9.986;2023-04-28T08:33:59;100712.81;;;10.55;53.06
77583;BME280;66726;52.388;9.986;2023-04-28T08:36:31;100699.97;;;10.59;52.75
77583;BME280;66726;52.388;9.986;2023-04-28T08:39:06;100702.50;;;10.60;53.01
77583;BME280;66726;52.388;9.986;2023-04-28T08:41:42;100702.81;;;10.65;54.95
77583;BME280;66726;52.388;9.986;2023-04-28T08:44:14;100708.69;;;10.69;54.25
77583;BME280;66726;52.388;9.986;2023-04-28T08:46:52;100703.06;;;10.80;53.34
77583;BME280;66726;52.388;9.986;2023-04-28T08:49:33;100703.06;;;10.80;52.56
77583;BME280;66726;52.388;9.986;2023-04-28T08:52:14;100698.53;;;10.81;51.86
77583;BME280;66726;52.388;9.986;2023-04-28T08:54:48;100690.03;;;10.85;53.69
77583;BME280;66726;52.388;9.986;2023-04-28T08:57:23;100691.19;;;10.91;51.62
77583;BME280;66726;52.388;9.986;2023-04-28T08:59:57;100699.59;;;10.96;53.22
77583;BME280;66726;52.388;9.986;2023-04-28T09:02:30;100691.91;;;11.01;51.76
77583;BME280;66726;52.388;9.986;2023-04-28T09:05:02;100684.03;;;11.07;53.37
77583;BME280;66726;52.388;9.986;2023-04-28T09:07:34;100678.84;;;11.14;53.14
77583;BME280;66726;52.388;9.986;2023-04-28T09:10:19;100678.88;;;11.22;52.99
77583;BME280;66726;52.388;9.986;2023-04-28T09:12:55;100671.50;;;11.24;53.82
77583;BME280;66726;52.388;9.986;2023-04-28T09:15:33;100669.16;;;11.29;53.53
77583;BME280;66726;52.388;9.986;2023-04-28T09:18:08;100675.53;;;11.36;52.49
77583;BME280;66726;52.388;9.986;2023-04-28T09:20:47;100664.13;;;11.42;51.75
77583;BME280;66726;52.388;9.986;2023-04-28T09:23:20;100654.41;;;11.49;51.17
77583;BME280;66726;52.388;9.986;2023-04-28T09:25:59;100646.69;;;11.62;51.57
77583;BME280;66726;52.388;9.986;2023-04-28T09:28:33;100649.88;;;11.66;53.27
77583;BME280;66726;52.388;9.986;2023-04-28T09:31:06;100647.38;;;11.73;53.23
77583;BME280;66726;52.388;9.986;2023-04-28T09:34:01;100645.34;;;11.83;54.35
77583;BME280;66726;52.388;9.986;2023-04-28T09:36:33;100646.34;;;11.90;52.79
77583;BME280;66726;52.388;9.986;2023-04-28T09:39:05;100642.97;;;11.96;53.22
77583;BME280;66726;52.388;9.986;2023-04-28T09:41:44;100641.47;;;12.01;53.03
77583;BME280;66726;52.388;9.986;2023-04-28T09:44:18;100633.91;;;12.05;51.69
77583;BME280;66726;52.388;9.986;2023-04-28T09:46:51;100628.84;;;12.10;51.76
77583;BME280;66726;52.388;9.986;2023-04-28T09:49:24;100622.47;;;12.11;50.50
77583;BME280;66726;52.388;9.986;2023-04-28T09:52:11;100626.50;;;12.15;51.90
77583;BME280;66726;52.388;9.986;2023-04-28T09:54:43;100623.28;;;12.19;51.56
77583;BME280;66726;52.388;9.986;2023-04-28T09:57:15;100622.13;;;12.22;51.23
77583;BME280;66726;52.388;9.986;2023-04-28T09:59:51;100624.75;;;12.30;51.26
77583;BME280;66726;52.388;9.986;2023-04-28T10:02:24;100622.75;;;12.32;51.48
77583;BME280;66726;52.388;9.986;2023-04-28T10:05:01;100623.41;;;12.34;53.47
77583;BME280;66726;52.388;9.986;2023-04-28T10:07:35;100625.91;;;12.36;51.16
77583;BME280;66726;52.388;9.986;2023-04-28T10:10:09;100628.41;;;12.37;50.32
77583;BME280;66726;52.388;9.986;2023-04-28T10:12:44;100626.41;;;12.39;51.22
77583;BME280;66726;52.388;9.986;2023-04-28T10:15:16;100627.53;;;12.45;50.90
77583;BME280;66726;52.388;9.986;2023-04-28T10:17:51;100622.81;;;12.47;50.09
77583;BME280;66726;52.388;9.986;2023-04-28T10:20:25;100630.38;;;12.51;51.44
77583;BME280;66726;52.388;9.986;2023-04-28T10:23:16;100632.03;;;12.52;51.72
77583;BME280;66726;52.388;9.986;2023-04-28T10:25:58;100630.00;;;12.54;50.58
77583;BME280;66726;52.388;9.986;2023-04-28T10:28:30;100624.47;;;12.56;50.11
77583;BME280;66726;52.388;9.986;2023-04-28T10:31:16;100629.66;;;12.57;50.94
77583;BME280;66726;52.388;9.986;2023-04-28T10:33:51;100615.88;;;12.60;51.86
77583;BME280;66726;52.388;9.986;2023-04-28T10:36:49;100619.53;;;12.67;50.69
77583;BME280;66726;52.388;9.986;2023-04-28T10:39:22;100617.31;;;12.71;49.34
77583;BME280;66726;52.388;9.986;2023-04-28T10:41:56;100608.91;;;12.74;51.58
77583;BME280;66726;52.388;9.986;2023-04-28T10:44:43;100611.25;;;12.77;49.74
77583;BME280;66726;52.388;9.986;2023-04-28T10:47:15;100606.19;;;12.82;51.21
77583;BME280;66726;52.388;9.986;2023-04-28T10:50:10;100604.63;;;12.88;51.65
77583;BME280;66726;52.388;9.986;2023-04-28T10:52:53;100611.31;;;12.92;51.98
77583;BME280;66726;52.388;9.986;2023-04-28T10:55:31;100605.41;;;12.96;51.84
77583;BME280;66726;52.388;9.986;2023-04-28T10:58:34;100606.53;;;13.02;51.60
77583;BME280;66726;52.388;9.986;2023-04-28T11:01:31;100605.16;;;13.06;52.49
77583;BME280;66726;52.388;9.986;2023-04-28T11:04:09;100601.97;;;13.10;52.00
77583;BME280;66726;52.388;9.986;2023-04-28T11:06:45;100604.78;;;13.17;52.48
77583;BME280;66726;52.388;9.986;2023-04-28T11:09:51;100596.66;;;13.25;52.84
77583;BME280;66726;52.388;9.986;2023-04-28T11:12:23;100599.63;;;13.30;51.68
77583;BME280;66726;52.388;9.986;2023-04-28T11:14:54;100593.03;;;13.33;51.81
77583;BME280;66726;52.388;9.986;2023-04-28T11:17:40;100598.53;;;13.39;52.60
77583;BME280;66726;52.388;9.986;2023-04-28T11:20:16;100596.69;;;13.40;54.30
77583;BME280;66726;52.388;9.986;2023-04-28T11:22:55;100603.22;;;13.45;54.41
77583;BME280;66726;52.388;9.986;2023-04-28T11:25:28;100589.56;;;13.47;55.39
77583;BME280;66726;52.388;9.986;2023-04-28T11:28:18;100587.78;;;13.39;51.74
77583;BME280;66726;52.388;9.986;2023-04-28T11:30:50;100589.09;;;13.43;53.52
77583;BME280;66726;52.388;9.986;2023-04-28T11:33:23;100587.72;;;13.47;54.17
77583;BME280;66726;52.388;9.986;2023-04-28T11:35:55;100586.88;;;13.47;53.27
77583;BME280;66726;52.388;9.986;2023-04-28T11:38:27;100578.72;;;13.55;53.54
77583;BME280;66726;52.388;9.986;2023-04-28T11:41:01;100575.50;;;13.59;53.48
77583;BME280;66726;52.388;9.986;2023-04-28T11:43:39;100578.53;;;13.56;51.29
77583;BME280;66726;52.388;9.986;2023-04-28T11:46:20;100573.53;;;13.53;52.65
77583;BME280;66726;52.388;9.986;2023-04-28T11:49:02;100576.59;;;13.50;51.63
77583;BME280;66726;52.388;9.986;2023-04-28T11:51:37;100577.25;;;13.52;52.52
77583;BME280;66726;52.388;9.986;2023-04-28T11:54:09;100577.25;;;13.52;51.80
77583;BME280;66726;52.388;9.986;2023-04-28T11:56:45;100567.78;;;13.56;52.58
77583;BME280;66726;52.388;9.986;2023-04-28T11:59:17;100568.81;;;13.55;51.73
77583;BME280;66726;52.388;9.986;2023-04-28T12:01:53;100570.28;;;13.58;52.81
77583;BME280;66726;52.388;9.986;2023-04-28T12:04:32;100563.97;;;13.51;51.21
77583;BME280;66726;52.388;9.986;2023-04-28T12:07:09;100561.94;;;13.53;51.74
77583;BME280;66726;52.388;9.986;2023-04-28T12:09:44;100567.78;;;13.56;51.96
77583;BME280;66726;52.388;9.986;2023-04-28T12:12:29;100573.16;;;13.56;52.86
77583;BME280;66726;52.388;9.986;2023-04-28T12:15:08;100561.59;;;13.56;51.15
77583;BME280;66726;52.388;9.986;2023-04-28T12:17:42;100560.00;;;13.61;51.24
77583;BME280;66726;52.388;9.986;2023-04-28T12:20:35;100558.69;;;13.57;51.54
77583;BME280;66726;52.388;9.986;2023-04-28T12:23:08;100562.53;;;13.63;50.43
77583;BME280;66726;52.388;9.986;2023-04-28T12:25:46;100555.94;;;13.65;52.03
77583;BME280;66726;52.388;9.986;2023-04-28T12:28:19;100553.50;;;13.70;51.82
77583;BME280;66726;52.388;9.986;2023-04-28T12:31:01;100555.66;;;13.75;51.34
77583;BME280;66726;52.388;9.986;2023-04-28T12:33:34;100551.13;;;13.76;51.78
77583;BME280;66726;52.388;9.986;2023-04-28T12:36:09;100549.06;;;13.78;50.86
77583;BME280;66726;52.388;9.986;2023-04-28T12:38:50;100554.06;;;13.81;52.02
77583;BME280;66726;52.388;9.986;2023-04-28T12:41:22;100551.47;;;13.87;50.88
77583;BME280;66726;52.388;9.986;2023-04-28T12:43:57;100553.97;;;13.89;51.11
77583;BME280;66726;52.388;9.986;2023-04-28T12:46:29;100549.69;;;13.94;52.00
77583;BME280;66726;52.388;9.986;2023-04-28T12:49:01;100545.81;;;13.97;51.07
77583;BME280;66726;52.388;9.986;2023-04-28T12:51:33;100545.69;;;14.05;52.08
77583;BME280;66726;52.388;9.986;2023-04-28T12:54:08;100547.47;;;14.12;51.58
77583;BME280;66726;52.388;9.986;2023-04-28T12:56:40;100539.66;;;14.17;52.99
77583;BME280;66726;52.388;9.986;2023-04-28T12:59:13;100541.41;;;14.25;53.53
77583;BME280;66726;52.388;9.986;2023-04-28T13:01:45;100543.34;;;14.31;54.18
77583;BME280;66726;52.388;9.986;2023-04-28T13:04:17;100533.22;;;14.33;53.88
77583;BME280;66726;52.388;9.986;2023-04-28T13:06:50;100530.16;;;14.36;54.74
77583;BME280;66726;52.388;9.986;2023-04-28T13:09:23;100529.22;;;14.44;55.29
77583;BME280;66726;52.388;9.986;2023-04-28T13:11:56;100518.19;;;14.39;54.71
77583;BME280;66726;52.388;9.986;2023-04-28T13:14:29;100526.47;;;14.37;54.79
77583;BME280;66726;52.388;9.986;2023-04-28T13:17:02;100521.59;;;14.33;54.58
77583;BME280;66726;52.388;9.986;2023-04-28T13:19:34;100525.53;;;14.30;55.32
77583;BME280;66726;52.388;9.986;2023-04-28T13:22:05;100519.28;;;14.30;55.78
77583;BME280;66726;52.388;9.986;2023-04-28T13:24:38;100511.53;;;14.20;54.81
77583;BME280;66726;52.388;9.986;2023-04-28T13:27:10;100521.47;;;14.19;55.10
77583;BME280;66726;52.388;9.986;2023-04-28T13:29:43;100520.63;;;14.19;55.53